Time;durP1;ratioP1;P1;durP2;ratioP2;P2;SDS_P1;SDS_P2;PMS_P1;PMS_P2;Temp;Humidity;BMP_temperature;BMP_pressure;BME280_temperature;BME280_humidity;BME280_pressure;Samples;Min_cycle;Max_cycle;Signal;HPM_P1;HPM_P2
2022/05/04 17:23:40;;;;;;;5.40;4.55;;;17.70;89.30;;;;;;5023338;28;20088;-90
2022/05/04 17:26:12;;;;;;;6.03;4.90;;;17.70;90.10;;;;;;5021556;28;20037;-93
2022/05/04 17:28:44;;;;;;;5.25;4.68;;;17.70;90.10;;;;;;5009534;28;20021;-92
2022/05/04 17:31:12;;;;;;;5.65;5.07;;;17.60;90.20;;;;;;5018002;28;20097;-91
2022/05/04 17:37:07;;;;;;;10.10;7.90;;;17.60;90.30;;;;;;5027897;28;20025;-92
2022/05/04 17:39:33;;;;;;;6.93;5.00;;;17.60;90.30;;;;;;5027949;28;20026;-93
2022/05/04 17:42:02;;;;;;;5.55;4.85;;;17.60;90.20;;;;;;5006598;28;20060;-91
2022/05/04 17:44:28;;;;;;;6.05;5.03;;;17.60;90.30;;;;;;4997439;28;20026;-92
2022/05/04 17:46:54;;;;;;;7.22;4.95;;;17.50;90.30;;;;;;5012142;28;20028;-91
2022/05/04 17:49:21;;;;;;;6.93;5.10;;;17.50;90.60;;;;;;4996471;28;20184;-93
2022/05/04 17:51:48;;;;;;;6.47;5.03;;;17.50;90.80;;;;;;4999152;28;20085;-93
2022/05/04 17:54:17;;;;;;;7.07;5.50;;;17.50;90.90;;;;;;4989458;28;20036;-92
2022/05/04 17:59:58;;;;;;;6.05;5.55;;;17.40;90.80;;;;;;4996235;28;20080;-92
2022/05/04 18:06:12;;;;;;;;;;;;;;;;;;;;;
2022/05/04 18:08:51;;;;;;;9.30;6.70;;;17.20;90.90;;;;;;5012185;28;20117;-95
2022/05/04 18:11:25;;;;;;;7.95;6.82;;;17.10;90.80;;;;;;5010172;28;20018;-94
2022/05/04 18:13:52;;;;;;;7.75;6.32;;;17.00;91.00;;;;;;5027778;28;20033;-94
2022/05/04 18:16:24;;;;;;;8.63;6.60;;;16.90;91.10;;;;;;5008097;28;20036;-95
2022/05/04 18:18:50;;;;;;;9.93;6.60;;;16.90;91.30;;;;;;5022053;28;20117;-93
2022/05/04 18:21:25;;;;;;;7.22;6.00;;;16.80;91.40;;;;;;4994685;28;20102;-92
2022/05/04 18:24:27;;;;;;;7.57;6.13;;;16.70;91.40;;;;;;5001347;28;20465;-93
2022/05/04 18:26:58;;;;;;;7.63;6.35;;;16.60;91.50;;;;;;5000758;28;20022;-92
2022/05/04 18:29:26;;;;;;;7.30;6.25;;;16.60;91.60;;;;;;5009173;28;20038;-92
2022/05/04 18:32:10;;;;;;;7.10;6.40;;;16.50;91.70;;;;;;4994677;28;20042;-93
2022/05/04 18:35:00;;;;;;;7.30;6.32;;;16.40;92.00;;;;;;4986682;28;20092;-92
2022/05/04 18:37:52;;;;;;;6.88;6.22;;;16.40;92.10;;;;;;4992879;28;20039;-93
2022/05/04 18:40:27;;;;;;;6.90;5.90;;;16.30;92.20;;;;;;4996822;28;20121;-93
2022/05/04 18:43:01;;;;;;;6.18;5.45;;;16.10;92.20;;;;;;4993904;28;20026;-92
2022/05/04 18:45:51;;;;;;;6.10;5.18;;;16.00;92.50;;;;;;5010803;28;20029;-92
2022/05/04 18:48:31;;;;;;;5.45;4.95;;;15.90;92.60;;;;;;4998127;28;20042;-92
2022/05/04 18:51:06;;;;;;;6.80;5.28;;;15.80;92.70;;;;;;4999127;28;20057;-92
2022/05/04 18:53:51;;;;;;;6.30;5.43;;;15.70;92.80;;;;;;4997898;28;20061;-92
2022/05/04 18:56:31;;;;;;;6.50;5.05;;;15.70;93.00;;;;;;4989961;28;20070;-92
2022/05/04 19:01:56;;;;;;;5.32;4.82;;;15.50;93.10;;;;;;5023266;28;20033;-91
2022/05/04 19:04:43;;;;;;;5.47;4.93;;;15.50;93.20;;;;;;4996735;28;20032;-92
2022/05/04 19:07:12;;;;;;;6.90;5.15;;;15.50;93.40;;;;;;5000078;28;20049;-92
2022/05/04 19:09:38;;;;;;;6.15;5.30;;;15.50;93.40;;;;;;5001303;28;20038;-92
2022/05/04 19:12:05;;;;;;;5.70;4.88;;;15.50;93.50;;;;;;5009706;28;20033;-93
2022/05/04 19:14:30;;;;;;;5.65;5.07;;;15.50;93.60;;;;;;4997537;28;20034;-91
2022/05/04 19:16:56;;;;;;;6.90;5.60;;;15.50;93.70;;;;;;5019572;28;20045;-92
2022/05/04 19:19:29;;;;;;;9.10;5.60;;;15.60;93.70;;;;;;4995061;28;20034;-92
2022/05/04 19:21:57;;;;;;;;;;;15.60;93.60;;;;;;4996600;28;20030;-93
2022/05/04 19:24:23;;;;;;;5.65;4.68;;;15.50;93.20;;;;;;4996496;28;20091;-91
2022/05/04 19:26:59;;;;;;;5.55;4.70;;;15.50;93.30;;;;;;5000969;28;20021;-92
2022/05/04 19:29:25;;;;;;;5.55;5.05;;;15.50;93.50;;;;;;4997798;28;20073;-92
2022/05/04 19:32:00;;;;;;;5.25;4.75;;;15.50;93.40;;;;;;5001215;28;20065;-89
2022/05/04 19:34:27;;;;;;;7.95;5.00;;;15.50;93.40;;;;;;5002097;28;20041;-92
2022/05/04 19:37:00;;;;;;;7.78;5.15;;;15.50;93.50;;;;;;5001594;28;20029;-91
2022/05/04 19:39:26;;;;;;;6.55;5.10;;;15.40;93.40;;;;;;5010283;28;20049;-91
2022/05/04 19:42:01;;;;;;;9.18;5.32;;;15.40;93.40;;;;;;5001775;28;20022;-92
2022/05/04 19:44:30;;;;;;;7.30;5.32;;;15.40;93.50;;;;;;5009183;28;20054;-91
2022/05/04 19:47:26;;;;;;;6.05;5.05;;;15.40;93.60;;;;;;5005718;28;20038;-93
2022/05/04 19:50:02;;;;;;;5.90;5.30;;;15.50;93.60;;;;;;5007102;28;20042;-92
2022/05/04 19:53:07;;;;;;;7.15;5.10;;;15.50;93.60;;;;;;5006073;28;20089;-92
2022/05/04 19:55:44;;;;;;;5.90;5.30;;;15.60;93.60;;;;;;5003868;28;20061;-93
2022/05/04 19:58:11;;;;;;;6.32;5.72;;;15.50;93.50;;;;;;4998797;28;20034;-92
2022/05/04 20:00:52;;;;;;;7.55;5.72;;;15.50;93.40;;;;;;5005346;28;20034;-93
2022/05/04 20:07:16;;;;;;;6.50;5.78;;;15.40;93.40;;;;;;4985040;28;20102;-94
2022/05/04 20:10:09;;;;;;;6.90;5.60;;;15.40;93.50;;;;;;5022667;28;20030;-92
2022/05/04 20:12:41;;;;;;;7.05;5.60;;;15.40;93.50;;;;;;5015262;28;20102;-93
2022/05/04 20:15:29;;;;;;;4.75;4.07;;;15.40;93.60;;;;;;5019842;28;20018;-94
2022/05/04 20:21:16;;;;;;;8.80;7.13;;;15.40;93.60;;;;;;5032295;28;20608;-92
2022/05/04 20:23:51;;;;;;;7.05;5.75;;;15.40;93.40;;;;;;5009674;28;20099;-93
2022/05/04 20:27:02;;;;;;;;;;;;;;;;;;;;;
2022/05/04 20:29:40;;;;;;;8.13;6.25;;;15.30;93.80;;;;;;4989594;28;20129;-93
2022/05/04 20:32:06;;;;;;;8.35;5.88;;;15.30;93.80;;;;;;4998899;28;20120;-92
2022/05/04 20:34:33;;;;;;;7.95;6.32;;;15.30;93.80;;;;;;5001864;28;20018;-93
2022/05/04 20:37:05;;;;;;;7.35;6.05;;;15.30;93.90;;;;;;5002992;28;20080;-93
2022/05/04 20:39:38;;;;;;;8.75;6.25;;;15.30;94.00;;;;;;5015547;28;20041;-92
2022/05/04 20:42:10;;;;;;;6.57;5.97;;;15.40;94.00;;;;;;5004192;28;20034;-93
2022/05/04 20:44:38;;;;;;;;;;;15.40;94.00;;;;;;5006952;28;20029;-93
2022/05/04 20:47:16;;;;;;;8.25;5.65;;;15.40;93.70;;;;;;5004105;28;19920;-93
2022/05/04 20:49:50;;;;;;;8.07;6.07;;;15.50;93.90;;;;;;5001424;28;20034;-94
2022/05/04 20:52:19;;;;;;;7.80;6.20;;;15.50;93.90;;;;;;5025198;28;20034;-93
2022/05/04 20:55:12;;;;;;;8.07;6.70;;;15.50;93.80;;;;;;5006956;28;20117;-93
2022/05/04 20:57:59;;;;;;;8.70;6.53;;;15.40;94.00;;;;;;5002669;28;20038;-93
2022/05/04 21:00:31;;;;;;;6.35;5.75;;;15.40;94.00;;;;;;5010348;28;20022;-93
2022/05/04 21:03:19;;;;;;;8.15;6.82;;;15.40;94.10;;;;;;5008665;28;20112;-93
2022/05/04 21:06:08;;;;;;;;;;;;;;;;;;;;;
2022/05/04 21:08:45;;;;;;;9.32;6.55;;;15.40;94.20;;;;;;5023407;28;20079;-93
2022/05/04 21:11:11;;;;;;;7.53;6.82;;;15.40;94.20;;;;;;5019041;28;20060;-93
2022/05/04 21:13:38;;;;;;;7.85;6.85;;;15.40;94.30;;;;;;5005514;28;20040;-93
2022/05/04 21:16:17;;;;;;;7.85;6.05;;;15.40;94.30;;;;;;5000022;28;20042;-93
2022/05/04 21:18:46;;;;;;;8.07;6.85;;;15.30;94.30;;;;;;4998942;28;20026;-93
2022/05/04 21:21:16;;;;;;;7.25;6.47;;;15.30;94.30;;;;;;5003054;28;20041;-92
2022/05/04 21:23:51;;;;;;;8.48;6.40;;;15.20;94.30;;;;;;5002403;28;20058;-93
2022/05/04 21:26:21;;;;;;;7.57;6.72;;;15.30;94.50;;;;;;5005528;28;20030;-93
2022/05/04 21:28:54;;;;;;;8.25;6.45;;;15.20;94.50;;;;;;5020037;28;20018;-92
2022/05/04 21:31:26;;;;;;;7.25;6.55;;;15.30;94.60;;;;;;5018765;28;20045;-90
2022/05/04 21:33:55;;;;;;;8.18;7.35;;;15.20;94.60;;;;;;5009575;28;20061;-93
2022/05/04 21:36:24;;;;;;;7.40;6.57;;;15.30;94.70;;;;;;5004503;28;20038;-93
2022/05/04 21:38:54;;;;;;;8.23;7.30;;;15.30;94.60;;;;;;5002498;28;20034;-93
2022/05/04 21:41:41;;;;;;;9.43;7.72;;;15.30;94.60;;;;;;5033571;23;20057;-86
2022/05/04 21:44:10;;;;;;;8.02;7.10;;;15.30;94.60;;;;;;4994527;28;20133;-87
2022/05/04 21:46:35;;;;;;;12.55;7.05;;;15.30;94.60;;;;;;5004422;28;20038;-87
2022/05/04 21:49:02;;;;;;;7.80;7.00;;;15.20;94.70;;;;;;5003690;28;20026;-87
2022/05/04 21:51:27;;;;;;;8.70;7.25;;;15.20;94.70;;;;;;5001092;28;20026;-86
2022/05/04 21:53:53;;;;;;;8.77;7.20;;;15.20;94.90;;;;;;4996861;28;20061;-87
2022/05/04 21:56:19;;;;;;;8.13;7.18;;;15.10;94.70;;;;;;5000226;28;20030;-86
2022/05/04 21:58:44;;;;;;;10.15;8.15;;;14.90;94.80;;;;;;4995942;28;20022;-87
2022/05/04 22:01:15;;;;;;;10.07;7.70;;;14.80;94.90;;;;;;4991649;28;20026;-87
2022/05/04 22:03:41;;;;;;;9.18;8.23;;;14.70;95.20;;;;;;4989191;28;20026;-87
2022/05/04 22:06:06;;;;;;;10.73;8.25;;;14.50;95.30;;;;;;4995444;28;20111;-87
2022/05/04 22:08:32;;;;;;;10.73;8.85;;;14.40;95.50;;;;;;4995207;28;20038;-87
2022/05/04 22:13:54;;;;;;;12.85;8.65;;;14.40;96.00;;;;;;5017314;28;20167;-86
2022/05/04 22:16:21;;;;;;;13.93;9.63;;;14.30;96.10;;;;;;5009991;28;20404;-86
2022/05/04 22:18:47;;;;;;;13.23;9.50;;;14.30;96.20;;;;;;4998382;28;20512;-87
2022/05/04 22:21:22;;;;;;;15.10;9.93;;;14.20;96.30;;;;;;4998581;28;20472;-88
2022/05/04 22:23:48;;;;;;;13.07;10.88;;;14.10;96.70;;;;;;4998633;28;20026;-86
2022/05/04 22:26:16;;;;;;;12.85;9.55;;;14.00;96.70;;;;;;5001133;28;20458;-86
2022/05/04 22:28:42;;;;;;;11.90;9.38;;;13.90;96.90;;;;;;4998276;28;20117;-86
2022/05/04 22:31:07;;;;;;;15.82;9.40;;;13.70;97.10;;;;;;4992400;28;20054;-87
2022/05/04 22:33:33;;;;;;;11.32;9.07;;;13.70;97.40;;;;;;5009289;28;20030;-86
2022/05/04 22:35:58;;;;;;;11.65;9.30;;;13.60;97.70;;;;;;5015698;28;20022;-87
2022/05/04 22:38:24;;;;;;;10.45;8.10;;;13.50;98.00;;;;;;4999720;28;20471;-86
2022/05/04 22:40:49;;;;;;;9.40;7.63;;;13.50;98.30;;;;;;5015829;28;20026;-86
2022/05/04 22:43:36;;;;;;;9.43;7.78;;;13.50;98.50;;;;;;4993219;28;20064;-86
2022/05/04 22:46:02;;;;;;;9.30;7.57;;;13.40;98.80;;;;;;4980051;28;20030;-87
2022/05/04 22:48:28;;;;;;;10.50;7.47;;;13.40;98.80;;;;;;4990970;28;20036;-87
2022/05/04 22:50:53;;;;;;;9.75;8.20;;;13.30;99.10;;;;;;5007294;28;20036;-87
2022/05/04 22:53:19;;;;;;;9.10;7.70;;;13.30;99.30;;;;;;4992538;28;20044;-87
2022/05/04 22:55:47;;;;;;;8.77;7.38;;;13.30;99.40;;;;;;4997471;28;20064;-87
2022/05/04 22:58:13;;;;;;;10.15;7.25;;;13.30;99.50;;;;;;4987800;28;20066;-86
2022/05/04 23:00:39;;;;;;;8.73;7.80;;;13.30;99.60;;;;;;4994206;28;20082;-87
2022/05/04 23:03:05;;;;;;;10.60;8.00;;;13.30;99.70;;;;;;5008763;28;20032;-86
2022/05/04 23:19:00;;;;;;;13.63;10.15;;;13.10;99.90;;;;;;5007756;28;20084;-86
2022/05/04 23:21:26;;;;;;;13.57;9.95;;;13.20;99.90;;;;;;4994446;28;20112;-87
2022/05/04 23:23:52;;;;;;;17.38;10.55;;;13.20;99.90;;;;;;4989621;28;20134;-87
2022/05/04 23:26:19;;;;;;;12.13;10.05;;;13.20;99.90;;;;;;4994806;28;20057;-87
2022/05/04 23:28:45;;;;;;;12.88;10.75;;;13.20;99.90;;;;;;5009713;28;20049;-87
2022/05/04 23:31:11;;;;;;;17.00;9.93;;;13.20;99.90;;;;;;4998062;28;20026;-87
2022/05/04 23:33:36;;;;;;;13.13;9.88;;;13.20;99.90;;;;;;4992394;28;20033;-86
2022/05/04 23:38:46;;;;;;;12.73;9.68;;;13.30;99.90;;;;;;5008858;28;20045;-87
2022/05/04 23:41:12;;;;;;;12.90;9.75;;;13.30;99.90;;;;;;5007756;28;20034;-87
2022/05/04 23:43:38;;;;;;;11.25;9.52;;;13.40;99.90;;;;;;4995333;28;20030;-88
2022/05/04 23:46:03;;;;;;;11.25;8.75;;;13.40;99.90;;;;;;4995940;28;20075;-86
2022/05/04 23:48:29;;;;;;;11.45;8.65;;;13.40;99.90;;;;;;4993444;28;20033;-87
2022/05/04 23:50:55;;;;;;;10.18;8.07;;;13.50;99.90;;;;;;4986910;28;20082;-86
2022/05/04 23:53:21;;;;;;;9.80;8.40;;;13.50;99.90;;;;;;4995601;28;20491;-86
2022/05/04 23:55:48;;;;;;;9.52;8.13;;;13.50;99.90;;;;;;4989981;28;20112;-86
2022/05/04 23:58:14;;;;;;;10.45;8.30;;;13.50;99.90;;;;;;5013995;28;20026;-87
